Time;durP1;ratioP1;P1;durP2;ratioP2;P2;SDS_P1;SDS_P2;PMS_P1;PMS_P2;Temp;Humidity;BMP_temperature;BMP_pressure;BME280_temperature;BME280_humidity;BME280_pressure;Samples;Min_cycle;Max_cycle;Signal;HPM_P1;HPM_P2
2021/06/28 00:01:05;;;;;;;7.42;6.72;;;;;;;16.69;77.49;96706.67;1659431;85;20920;-81
2021/06/28 00:03:33;;;;;;;7.67;6.97;;;;;;;16.68;77.43;96712.44;1649814;86;20990;-81
2021/06/28 00:05:59;;;;;;;7.28;6.53;;;;;;;16.67;77.41;96711.34;1649461;86;20970;-81
2021/06/28 00:08:25;;;;;;;7.90;6.62;;;;;;;16.68;77.47;96705.08;1649721;86;21351;-81
2021/06/28 00:10:51;;;;;;;7.00;6.40;;;;;;;16.66;77.40;96707.08;1630534;87;20997;-81
2021/06/28 00:13:16;;;;;;;10.30;7.50;;;;;;;16.65;77.66;96703.65;1659542;85;20975;-80
2021/06/28 00:15:43;;;;;;;8.48;7.42;;;;;;;16.62;77.80;96705.39;1667866;85;21007;-81
2021/06/28 00:18:09;;;;;;;7.15;6.55;;;;;;;16.60;77.81;96702.18;1650344;86;21004;-80
2021/06/28 00:20:35;;;;;;;7.47;6.78;;;;;;;16.59;77.89;96702.36;1679985;83;21031;-81
2021/06/28 00:23:02;;;;;;;8.03;6.70;;;;;;;16.59;77.97;96696.61;1691365;83;20948;-81
2021/06/28 00:25:27;;;;;;;7.60;6.53;;;;;;;16.60;77.99;96696.13;1691380;85;20960;-81
2021/06/28 00:27:53;;;;;;;7.28;6.58;;;;;;;16.61;77.99;96702.98;1671680;84;20997;-81
2021/06/28 00:30:20;;;;;;;8.13;7.33;;;;;;;16.61;77.99;96696.42;1673709;84;21003;-81
2021/06/28 00:32:47;;;;;;;8.05;7.25;;;;;;;16.60;78.01;96694.81;1708480;82;21013;-80
2021/06/28 00:35:13;;;;;;;9.53;8.53;;;;;;;16.58;78.09;96697.62;1662396;86;20986;-81
2021/06/28 00:37:40;;;;;;;8.58;7.25;;;;;;;16.56;78.27;96695.72;1660377;84;21286;-81
2021/06/28 00:40:08;;;;;;;8.50;7.70;;;;;;;16.57;78.22;96694.70;1667312;84;21048;-81
2021/06/28 00:42:34;;;;;;;8.08;7.25;;;;;;;16.57;78.21;96692.08;1672217;85;20950;-81
2021/06/28 00:45:00;;;;;;;8.05;6.83;;;;;;;16.59;78.29;96697.11;1661994;84;20916;-81
2021/06/28 00:47:26;;;;;;;8.18;7.37;;;;;;;16.58;78.33;96696.31;1650056;85;21468;-81
2021/06/28 00:49:51;;;;;;;8.15;7.30;;;;;;;16.62;78.23;96698.03;1655093;84;21030;-81
2021/06/28 00:52:17;;;;;;;7.37;6.67;;;;;;;16.63;78.07;96695.19;1677790;84;20966;-81
2021/06/28 00:54:43;;;;;;;8.15;7.28;;;;;;;16.64;78.21;96702.55;1680781;84;21280;-81
2021/06/28 00:57:08;;;;;;;7.40;6.58;;;;;;;16.59;78.18;96700.55;1651020;85;21011;-81
2021/06/28 00:59:35;;;;;;;7.22;6.53;;;;;;;16.56;78.49;96701.48;1669477;84;21010;-81
2021/06/28 01:02:02;;;;;;;8.45;7.58;;;;;;;16.54;78.56;96706.94;1682764;84;21318;-80
2021/06/28 01:04:28;;;;;;;7.12;6.42;;;;;;;16.54;78.53;96710.07;1690752;83;21040;-81
2021/06/28 01:06:55;;;;;;;7.80;7.00;;;;;;;16.52;78.31;96702.41;1675609;84;21330;-81
2021/06/28 01:09:21;;;;;;;7.92;7.05;;;;;;;16.50;78.81;96697.38;1686977;83;21010;-80
2021/06/28 01:11:46;;;;;;;8.98;8.08;;;;;;;16.47;78.67;96696.50;1659317;85;20945;-80
2021/06/28 01:14:13;;;;;;;9.10;8.30;;;;;;;16.44;78.60;96698.23;1672115;85;21072;-81
2021/06/28 01:16:39;;;;;;;7.78;6.97;;;;;;;16.40;78.74;96693.59;1674979;84;21285;-81
2021/06/28 01:19:05;;;;;;;8.10;7.28;;;;;;;16.39;78.72;96692.80;1670170;84;20984;-81
2021/06/28 01:21:30;;;;;;;7.45;6.75;;;;;;;16.38;78.76;96697.75;1651009;86;20987;-80
2021/06/28 01:23:56;;;;;;;7.90;7.12;;;;;;;16.38;78.84;96690.39;1652141;86;21002;-81
2021/06/28 01:26:22;;;;;;;7.70;7.00;;;;;;;16.37;78.86;96694.83;1657607;86;21243;-81
2021/06/28 01:28:47;;;;;;;9.05;8.20;;;;;;;16.37;78.83;96693.52;1658684;85;20947;-81
2021/06/28 01:31:13;;;;;;;8.55;7.67;;;;;;;16.37;78.87;96690.89;1658000;85;20946;-81
2021/06/28 01:33:39;;;;;;;8.35;7.55;;;;;;;16.34;79.01;96687.39;1652523;85;20946;-81
2021/06/28 01:36:06;;;;;;;7.95;7.12;;;;;;;16.31;79.22;96687.02;1664734;85;21025;-81
2021/06/28 01:38:32;;;;;;;8.23;7.47;;;;;;;16.31;79.54;96689.63;1667366;85;20966;-81
2021/06/28 01:40:58;;;;;;;9.00;6.80;;;;;;;16.31;79.70;96692.26;1652877;85;21282;-81
2021/06/28 01:43:24;;;;;;;8.25;7.45;;;;;;;16.30;79.72;96687.52;1640158;86;21001;-80
2021/06/28 01:45:52;;;;;;;8.40;7.55;;;;;;;16.30;79.47;96688.83;1662292;85;20979;-81
2021/06/28 01:48:17;;;;;;;8.83;8.00;;;;;;;16.31;79.36;96690.44;1661231;85;20995;-80
2021/06/28 01:50:43;;;;;;;8.43;7.60;;;;;;;16.32;79.36;96691.23;1665433;85;21278;-81
2021/06/28 01:53:09;;;;;;;8.43;7.37;;;;;;;16.31;79.72;96688.32;1667701;85;20973;-81
2021/06/28 01:55:36;;;;;;;9.53;8.63;;;;;;;16.28;79.93;96685.62;1667104;85;20936;-81
2021/06/28 01:58:03;;;;;;;8.68;7.85;;;;;;;16.26;80.00;96686.30;1669090;85;21265;-80
2021/06/28 02:00:40;;;;;;;8.35;7.53;;;;;;;16.24;79.98;96680.98;1669180;85;20955;-80
2021/06/28 02:03:10;;;;;;;7.72;6.78;;;;;;;16.24;80.00;96680.98;1669129;85;21327;-81
2021/06/28 02:05:39;;;;;;;8.48;7.70;;;;;;;16.23;80.16;96682.80;1664401;85;21340;-81
2021/06/28 02:08:06;;;;;;;8.10;7.40;;;;;;;16.25;80.35;96684.70;1667189;85;20975;-81
2021/06/28 02:10:34;;;;;;;8.20;7.33;;;;;;;16.27;80.22;96680.55;1664322;85;21272;-81
2021/06/28 02:12:59;;;;;;;8.78;7.97;;;;;;;16.28;79.93;96676.44;1667506;85;20969;-81
2021/06/28 02:15:29;;;;;;;8.75;7.97;;;;;;;16.30;79.78;96673.09;1666976;86;21306;-81
2021/06/28 02:17:57;;;;;;;9.25;8.45;;;;;;;16.33;79.84;96683.16;1668655;85;20940;-81
2021/06/28 02:20:23;;;;;;;8.90;8.03;;;;;;;16.32;79.92;96682.86;1657050;86;21054;-81
2021/06/28 02:22:49;;;;;;;8.75;7.22;;;;;;;16.29;80.08;96686.42;1641222;86;21000;-80
2021/06/28 02:25:15;;;;;;;8.48;7.67;;;;;;;16.27;80.23;96685.80;1626141;86;20974;-81
2021/06/28 02:27:41;;;;;;;9.15;8.40;;;;;;;16.27;80.27;96685.32;1639112;86;21299;-81
2021/06/28 02:30:12;;;;;;;8.05;7.25;;;;;;;16.28;80.24;96687.44;1637497;86;20978;-80
2021/06/28 02:32:39;;;;;;;8.10;7.30;;;;;;;16.29;80.24;96693.78;1638828;86;21273;-81
2021/06/28 02:35:06;;;;;;;8.43;7.55;;;;;;;16.30;79.99;96691.45;1623453;86;20928;-81
2021/06/28 02:37:32;;;;;;;8.38;7.65;;;;;;;16.32;79.91;96687.30;1601611;88;20987;-80
2021/06/28 02:39:58;;;;;;;9.18;8.38;;;;;;;16.33;79.92;96691.53;1605033;86;20925;-80
2021/06/28 02:42:24;;;;;;;8.70;7.80;;;;;;;16.32;80.09;96688.62;1642167;86;20995;-81
2021/06/28 02:44:50;;;;;;;9.40;8.50;;;;;;;16.28;80.40;96685.62;1639856;86;20949;-81
2021/06/28 02:47:16;;;;;;;8.28;7.50;;;;;;;16.26;80.44;96684.19;1640959;86;21281;-81
2021/06/28 02:49:41;;;;;;;9.43;8.53;;;;;;;16.25;80.40;96684.70;1640646;86;20978;-81
2021/06/28 02:52:07;;;;;;;9.00;7.53;;;;;;;16.24;80.46;96688.84;1637402;86;20978;-81
2021/06/28 02:54:33;;;;;;;7.28;6.58;;;;;;;16.25;80.28;96691.77;1641295;86;21233;-80
2021/06/28 02:56:58;;;;;;;9.63;8.75;;;;;;;16.27;80.24;96688.42;1637748;86;21311;-80
2021/06/28 02:59:24;;;;;;;9.25;8.45;;;;;;;16.31;80.30;96686.50;1613868;87;20955;-81
2021/06/28 03:01:50;;;;;;;9.78;8.83;;;;;;;16.34;80.31;96683.96;1660242;86;21024;-80
2021/06/28 03:04:16;;;;;;;9.05;8.15;;;;;;;16.32;80.56;96684.17;1627768;86;21009;-81
2021/06/28 03:06:41;;;;;;;9.00;8.20;;;;;;;16.29;80.85;96683.80;1636849;86;21060;-81
2021/06/28 03:09:07;;;;;;;8.03;7.33;;;;;;;16.28;81.11;96685.62;1639079;86;21066;-81
2021/06/28 03:11:33;;;;;;;9.33;8.40;;;;;;;16.29;81.26;96686.42;1642261;86;21275;-81
2021/06/28 03:13:59;;;;;;;9.38;7.55;;;;;;;16.29;81.08;96692.97;1641593;86;21004;-81
2021/06/28 03:16:25;;;;;;;7.80;7.10;;;;;;;16.31;80.95;96691.75;1637380;86;20973;-81
2021/06/28 03:18:51;;;;;;;9.58;8.10;;;;;;;16.33;80.93;96688.91;1641500;85;21375;-81
2021/06/28 03:21:17;;;;;;;9.00;7.67;;;;;;;16.37;80.93;96692.72;1658861;85;21000;-81
2021/06/28 03:23:43;;;;;;;9.13;8.23;;;;;;;16.39;81.00;96688.06;1651452;85;20928;-81
2021/06/28 03:26:09;;;;;;;9.13;8.23;;;;;;;16.40;81.05;96684.42;1664184;85;21352;-81
2021/06/28 03:28:35;;;;;;;9.15;8.35;;;;;;;16.37;81.23;96688.27;1669255;85;21020;-81
2021/06/28 03:31:03;;;;;;;9.60;8.70;;;;;;;16.35;81.23;96679.81;1639890;86;20960;-81
2021/06/28 03:33:28;;;;;;;8.20;7.47;;;;;;;16.35;81.35;96681.64;1623885;87;21043;-80
2021/06/28 03:35:54;;;;;;;9.20;8.40;;;;;;;16.35;81.43;96684.26;1644176;85;21001;-81
2021/06/28 03:38:20;;;;;;;8.93;8.03;;;;;;;16.35;81.49;96681.64;1666325;85;21324;-81
2021/06/28 03:40:45;;;;;;;9.10;7.78;;;;;;;16.36;81.65;96682.73;1662593;85;21214;-81
2021/06/28 03:43:11;;;;;;;8.40;7.58;;;;;;;16.36;81.68;96678.80;1650817;86;20938;-81
2021/06/28 03:45:37;;;;;;;7.65;7.05;;;;;;;16.35;81.67;96681.12;1662936;85;20938;-81
2021/06/28 03:48:05;;;;;;;8.38;7.62;;;;;;;16.35;81.68;96674.57;1655469;85;20984;-80
2021/06/28 03:50:31;;;;;;;9.33;8.43;;;;;;;16.36;81.80;96672.75;1669077;85;21048;-80
2021/06/28 03:52:57;;;;;;;8.73;7.83;;;;;;;16.36;82.00;96674.06;1641224;86;21007;-80
2021/06/28 03:55:23;;;;;;;8.43;7.72;;;;;;;16.35;82.15;96675.08;1639189;86;20972;-81
2021/06/28 03:57:49;;;;;;;9.83;8.30;;;;;;;16.34;82.32;96674.78;1667509;85;21222;-81
2021/06/28 04:00:21;;;;;;;8.90;8.15;;;;;;;16.33;82.42;96673.18;1639157;86;20920;-81
2021/06/28 04:02:47;;;;;;;;;;;;;;;16.33;82.44;96671.87;1668044;85;20952;-80
2021/06/28 04:05:17;;;;;;;9.33;8.45;;;;;;;16.34;82.55;96676.09;1664563;85;20178;-81
2021/06/28 04:07:43;;;;;;;8.93;8.13;;;;;;;16.34;82.62;96678.21;1616001;86;21006;-80
2021/06/28 04:10:10;;;;;;;8.03;7.28;;;;;;;16.36;82.55;96674.87;1659539;85;21448;-81
2021/06/28 04:12:36;;;;;;;9.03;8.23;;;;;;;16.39;82.72;96676.26;1637422;86;20921;-81
2021/06/28 04:15:05;;;;;;;8.15;7.35;;;;;;;16.42;82.69;96673.21;1637403;86;20988;-81
2021/06/28 04:17:31;;;;;;;8.38;7.40;;;;;;;16.43;82.68;96673.02;1664270;84;20971;-81
2021/06/28 04:19:57;;;;;;;8.75;7.83;;;;;;;16.46;82.66;96673.91;1666409;84;21305;-81
2021/06/28 04:22:23;;;;;;;8.93;8.03;;;;;;;16.50;82.73;96672.97;1658059;85;20968;-81
2021/06/28 04:24:48;;;;;;;9.45;8.58;;;;;;;16.54;82.77;96683.33;1679765;85;20908;-81
2021/06/28 04:27:14;;;;;;;8.38;7.62;;;;;;;16.61;82.78;96678.06;1663773;84;20989;-80
2021/06/28 04:29:40;;;;;;;8.08;7.37;;;;;;;16.70;82.84;96684.16;1649694;86;21246;-81
2021/06/28 04:32:06;;;;;;;9.15;8.35;;;;;;;16.74;82.76;96677.97;1663509;85;20928;-81
2021/06/28 04:34:32;;;;;;;9.53;8.55;;;;;;;16.77;82.69;96679.69;1682944;84;20921;-80
2021/06/28 04:36:58;;;;;;;8.30;7.50;;;;;;;16.82;82.63;96673.80;1683322;84;20929;-81
2021/06/28 04:39:23;;;;;;;8.98;8.08;;;;;;;16.85;82.75;96678.61;1676439;83;21280;-81
2021/06/28 04:41:49;;;;;;;9.93;7.70;;;;;;;16.87;82.73;96683.13;1669940;84;20948;-80
2021/06/28 04:44:15;;;;;;;7.87;7.10;;;;;;;16.93;82.71;96689.37;1671013;84;20986;-81
2021/06/28 04:46:41;;;;;;;9.08;8.18;;;;;;;16.97;82.69;96692.66;1674291;84;20988;-81
2021/06/28 04:49:06;;;;;;;7.97;7.20;;;;;;;17.01;82.70;96687.27;1690707;83;21010;-81
2021/06/28 04:51:33;;;;;;;9.30;8.40;;;;;;;17.06;82.68;96690.55;1660633;84;21341;-81
2021/06/28 04:53:59;;;;;;;9.03;8.23;;;;;;;17.10;82.72;96698.31;1667731;84;20982;-80
2021/06/28 04:56:25;;;;;;;10.43;8.33;;;;;;;17.11;82.84;96697.30;1675616;84;21334;-81
2021/06/28 04:58:51;;;;;;;8.30;7.60;;;;;;;17.13;82.94;96695.25;1691367;83;20998;-81
2021/06/28 05:01:17;;;;;;;8.50;7.80;;;;;;;17.15;83.03;96699.77;1673549;84;21290;-81
2021/06/28 05:03:43;;;;;;;8.35;7.60;;;;;;;17.18;83.01;96699.84;1652412;86;21003;-81
2021/06/28 05:06:09;;;;;;;8.68;7.83;;;;;;;17.21;83.09;96700.73;1638615;85;20974;-81
2021/06/28 05:08:35;;;;;;;9.33;8.43;;;;;;;17.23;83.15;96704.73;1666500;84;21370;-81
2021/06/28 05:11:00;;;;;;;8.15;7.40;;;;;;;17.27;83.21;96706.45;1690752;83;21010;-81
2021/06/28 05:13:26;;;;;;;8.20;7.50;;;;;;;17.30;83.30;96702.08;1672585;84;21318;-81
2021/06/28 05:15:52;;;;;;;8.80;8.00;;;;;;;17.34;83.36;96704.05;1670698;85;20938;-81
2021/06/28 05:18:17;;;;;;;8.40;7.60;;;;;;;17.40;83.45;96699.73;1673197;84;20960;-81
2021/06/28 05:20:43;;;;;;;8.58;7.78;;;;;;;17.47;83.49;96704.95;1693691;83;21349;-81
2021/06/28 05:23:09;;;;;;;8.28;7.58;;;;;;;17.50;83.44;96701.88;1677842;83;20910;-80
2021/06/28 05:25:35;;;;;;;7.90;7.08;;;;;;;17.56;83.48;96705.74;1678527;84;20983;-81
2021/06/28 05:28:01;;;;;;;7.53;6.83;;;;;;;17.60;83.27;96710.88;1663249;85;21350;-81
2021/06/28 05:30:27;;;;;;;8.85;7.95;;;;;;;17.65;83.34;96711.02;1678509;84;20987;-81
2021/06/28 05:32:52;;;;;;;8.90;8.03;;;;;;;17.72;83.40;96712.80;1672718;83;21064;-81
2021/06/28 05:35:18;;;;;;;8.95;8.05;;;;;;;17.76;83.42;96720.05;1678642;85;21251;-81
2021/06/28 05:37:44;;;;;;;8.68;7.87;;;;;;;17.81;83.48;96716.75;1687811;84;21004;-81
2021/06/28 05:40:10;;;;;;;7.75;6.97;;;;;;;17.86;83.43;96720.83;1687421;84;20992;-81
2021/06/28 05:42:38;;;;;;;8.05;7.25;;;;;;;17.90;83.46;96719.40;1677694;85;20986;-81
2021/06/28 05:45:05;;;;;;;8.43;7.72;;;;;;;17.95;83.63;96716.91;1680271;84;21277;-81
2021/06/28 05:47:33;;;;;;;7.80;7.05;;;;;;;18.03;83.77;96717.91;1682696;84;21005;-80
2021/06/28 05:49:59;;;;;;;8.23;7.42;;;;;;;18.11;83.82;96725.52;1674208;84;20906;-81
2021/06/28 05:52:25;;;;;;;8.40;7.70;;;;;;;18.19;83.74;96722.56;1659805;85;20900;-81
2021/06/28 05:54:51;;;;;;;10.18;9.28;;;;;;;18.29;83.70;96724.69;1678768;85;20992;-81
2021/06/28 05:57:19;;;;;;;9.78;8.78;;;;;;;18.39;83.22;96717.59;1688053;85;21004;-81
2021/06/28 05:59:46;;;;;;;9.23;8.43;;;;;;;18.47;83.57;96726.47;1695898;83;20941;-81
2021/06/28 06:02:14;;;;;;;9.40;8.40;;;;;;;18.53;83.32;96723.74;1678242;84;21012;-81
2021/06/28 06:04:40;;;;;;;10.80;8.63;;;;;;;18.60;83.47;96722.35;1678323;84;20999;-81
2021/06/28 06:07:06;;;;;;;9.70;8.90;;;;;;;18.69;83.47;96721.02;1678164;84;21350;-81
2021/06/28 06:09:32;;;;;;;9.28;7.97;;;;;;;18.80;83.31;96721.58;1678316;84;20935;-81
2021/06/28 06:11:58;;;;;;;12.58;11.40;;;;;;;18.92;83.17;96724.77;1695999;83;21282;-81
2021/06/28 06:14:24;;;;;;;14.68;13.22;;;;;;;19.02;82.78;96732.38;1678415;84;20927;-81
2021/06/28 06:16:49;;;;;;;11.30;10.30;;;;;;;19.15;81.91;96727.43;1678507;84;21245;-81
2021/06/28 06:19:15;;;;;;;13.22;11.93;;;;;;;19.27;82.25;96727.45;1678319;84;20960;-81
2021/06/28 06:21:41;;;;;;;19.32;10.60;;;;;;;19.37;81.84;96732.97;1653169;86;20980;-81
2021/06/28 06:24:07;;;;;;;12.85;11.73;;;;;;;19.44;81.79;96730.49;1657582;85;21355;-81
2021/06/28 06:26:33;;;;;;;14.03;12.63;;;;;;;19.54;81.45;96735.23;1678159;85;21025;-80
2021/06/28 06:28:59;;;;;;;15.53;14.13;;;;;;;19.64;80.74;96732.80;1686214;85;20984;-81
2021/06/28 06:31:25;;;;;;;14.07;12.68;;;;;;;19.75;80.39;96729.88;1654989;85;20994;-81
2021/06/28 06:33:51;;;;;;;14.75;13.25;;;;;;;19.88;80.19;96737.55;1645316;85;20922;-80
2021/06/28 06:36:16;;;;;;;12.65;11.53;;;;;;;19.97;80.08;96736.15;1648020;85;21347;-81
2021/06/28 06:38:42;;;;;;;14.00;12.63;;;;;;;20.05;79.70;96729.73;1652560;85;20961;-81
2021/06/28 06:41:08;;;;;;;13.05;11.75;;;;;;;20.12;78.69;96733.02;1636192;86;21044;-81
2021/06/28 06:43:34;;;;;;;11.48;10.38;;;;;;;20.21;78.13;96730.32;1662556;85;21306;-81
2021/06/28 06:46:00;;;;;;;13.95;12.53;;;;;;;20.32;78.61;96734.73;1671507;86;20939;-81
2021/06/28 06:48:25;;;;;;;12.13;10.95;;;;;;;20.41;78.35;96738.34;1671746;86;20991;-81
2021/06/28 06:50:51;;;;;;;12.05;10.85;;;;;;;20.49;78.69;96734.83;1651963;85;21289;-81
2021/06/28 06:53:17;;;;;;;12.60;11.50;;;;;;;20.56;78.71;96746.58;1671509;86;20936;-81
2021/06/28 06:55:44;;;;;;;11.10;10.10;;;;;;;20.64;78.09;96744.86;1671411;86;20970;-81
2021/06/28 06:58:10;;;;;;;13.70;12.28;;;;;;;20.74;78.49;96737.14;1671659;86;20987;-81
2021/06/28 07:00:39;;;;;;;15.43;13.75;;;;;;;20.78;77.84;96746.19;1671578;85;21292;-81
2021/06/28 07:03:08;;;;;;;15.43;13.38;;;;;;;20.73;77.21;96745.30;1671495;85;21299;-81
2021/06/28 07:05:34;;;;;;;11.40;10.30;;;;;;;20.63;76.93;96749.34;1671694;85;20987;-81
2021/06/28 07:08:00;;;;;;;9.70;8.80;;;;;;;20.53;77.79;96746.53;1671265;85;21075;-81
2021/06/28 07:10:26;;;;;;;11.83;10.72;;;;;;;20.49;78.22;96751.98;1671599;85;20995;-81
2021/06/28 07:12:51;;;;;;;11.30;10.20;;;;;;;20.38;78.16;96756.25;1621701;86;20978;-81
2021/06/28 07:15:18;;;;;;;10.00;9.10;;;;;;;20.25;78.43;96753.87;1669717;85;21579;-81
2021/06/28 07:17:44;;;;;;;10.58;9.68;;;;;;;20.19;78.63;96756.66;1671600;85;20956;-81
2021/06/28 07:20:17;;;;;;;11.03;9.80;;;;;;;20.11;78.91;96753.84;1667000;85;21029;-81
2021/06/28 07:22:42;;;;;;;10.75;9.80;;;;;;;20.13;79.11;96751.77;1641337;87;21339;-81
2021/06/28 07:25:12;;;;;;;10.82;9.83;;;;;;;20.09;79.38;96754.08;1656922;86;21028;-81
2021/06/28 07:27:37;;;;;;;10.70;9.25;;;;;;;20.11;79.39;96757.00;1635450;85;20974;-81
2021/06/28 07:30:09;;;;;;;11.25;10.18;;;;;;;20.08;79.40;96752.48;1633437;86;21016;-81
2021/06/28 07:32:37;;;;;;;11.63;10.53;;;;;;;20.22;79.79;96752.23;1664024;85;21315;-81
2021/06/28 07:35:05;;;;;;;9.83;9.03;;;;;;;20.40;79.70;96753.37;1636112;85;20945;-81
2021/06/28 07:37:31;;;;;;;11.83;10.72;;;;;;;20.49;79.22;96752.50;1650458;85;20964;-81
2021/06/28 07:39:56;;;;;;;11.48;10.38;;;;;;;20.58;79.02;96749.78;1652112;85;21297;-81
2021/06/28 07:42:24;;;;;;;12.43;11.33;;;;;;;20.73;78.72;96753.22;1656220;85;20976;-81
2021/06/28 07:44:49;;;;;;;11.55;10.58;;;;;;;20.84;77.55;96745.25;1656262;87;21309;-81
2021/06/28 07:47:15;;;;;;;11.95;10.82;;;;;;;20.97;77.93;96738.84;1656024;85;20988;-82
2021/06/28 07:49:41;;;;;;;11.73;10.72;;;;;;;20.93;76.95;96742.48;1656368;85;20925;-81
2021/06/28 07:52:09;;;;;;;12.73;11.55;;;;;;;21.02;77.85;96745.55;1656378;85;20985;-81
2021/06/28 07:54:35;;;;;;;11.00;10.00;;;;;;;21.17;77.31;96745.02;1655002;85;21047;-81
2021/06/28 07:57:01;;;;;;;12.28;11.18;;;;;;;21.23;77.50;96744.04;1656050;85;20992;-81
2021/06/28 07:59:26;;;;;;;12.20;11.03;;;;;;;21.36;76.81;96746.40;1656262;86;20929;-81
2021/06/28 08:01:52;;;;;;;10.32;8.98;;;;;;;21.56;76.38;96744.05;1655997;86;20897;-81
2021/06/28 08:04:18;;;;;;;11.55;10.60;;;;;;;21.65;72.98;96735.20;1627269;87;20945;-81
2021/06/28 08:06:43;;;;;;;11.48;10.58;;;;;;;21.81;74.12;96754.73;1637974;86;21299;-81
2021/06/28 08:09:09;;;;;;;10.88;9.98;;;;;;;21.91;75.68;96744.27;1666631;85;20958;-81
2021/06/28 08:11:36;;;;;;;11.22;10.25;;;;;;;22.03;75.96;96743.64;1634962;85;20946;-81
2021/06/28 08:14:02;;;;;;;11.63;10.53;;;;;;;22.13;74.64;96751.75;1645591;85;20961;-81
2021/06/28 08:16:28;;;;;;;11.03;10.13;;;;;;;22.29;73.90;96750.58;1629318;85;21024;-81
2021/06/28 08:18:54;;;;;;;11.33;10.23;;;;;;;22.49;74.05;96758.78;1632352;85;21325;-81
2021/06/28 08:21:21;;;;;;;11.57;10.60;;;;;;;22.62;72.85;96761.05;1645967;85;21004;-81
2021/06/28 08:23:47;;;;;;;10.55;9.75;;;;;;;22.74;72.52;96759.56;1641118;85;21329;-81
2021/06/28 08:26:13;;;;;;;10.08;9.28;;;;;;;22.88;72.02;96754.17;1644999;85;20999;-81
2021/06/28 08:28:39;;;;;;;10.53;9.63;;;;;;;23.00;71.35;96756.68;1662294;85;20945;-81
2021/06/28 08:31:06;;;;;;;9.93;9.03;;;;;;;23.13;70.48;96754.95;1657371;85;20951;-81
2021/06/28 08:33:32;;;;;;;9.98;9.10;;;;;;;23.26;69.69;96759.80;1663702;85;20936;-81
2021/06/28 08:36:00;;;;;;;9.50;8.60;;;;;;;23.43;69.85;96766.33;1671594;84;21026;-81
2021/06/28 08:38:25;;;;;;;9.30;8.50;;;;;;;23.57;68.96;96760.86;1642829;86;21013;-81
2021/06/28 08:40:51;;;;;;;11.33;10.30;;;;;;;23.70;68.42;96758.30;1642611;87;21034;-81
2021/06/28 08:43:17;;;;;;;10.45;9.45;;;;;;;23.88;67.90;96759.73;1629135;86;21041;-81
2021/06/28 08:45:43;;;;;;;10.70;9.63;;;;;;;24.04;68.24;96763.27;1653399;85;21363;-81
2021/06/28 08:48:09;;;;;;;10.63;9.63;;;;;;;24.13;67.53;96757.75;1645461;85;21029;-81
2021/06/28 08:50:37;;;;;;;10.03;9.10;;;;;;;24.26;66.00;96765.25;1646909;86;20975;-81
2021/06/28 08:53:04;;;;;;;9.70;8.83;;;;;;;24.34;66.44;96767.42;1664026;85;21023;-81
2021/06/28 08:55:30;;;;;;;9.63;8.93;;;;;;;24.46;66.88;96772.00;1655691;85;21307;-81
2021/06/28 08:57:56;;;;;;;8.73;7.92;;;;;;;24.59;65.50;96767.27;1651657;85;21032;-81
2021/06/28 09:00:21;;;;;;;8.98;8.10;;;;;;;24.69;65.79;96769.40;1650544;85;21014;-82
2021/06/28 09:02:59;;;;;;;10.35;9.55;;;;;;;24.67;65.03;96767.53;1659678;85;21088;-82
2021/06/28 09:05:28;;;;;;;11.22;10.13;;;;;;;24.78;65.25;96771.03;1635821;85;21057;-81
2021/06/28 09:08:12;;;;;;;9.10;8.30;;;;;;;24.90;63.75;96767.61;1640376;85;21117;-81
2021/06/28 09:10:41;;;;;;;10.90;9.88;;;;;;;24.94;64.47;96769.20;1650870;85;20954;-81
2021/06/28 09:13:07;;;;;;;10.18;9.28;;;;;;;24.97;62.66;96766.80;1650767;85;20970;-81
2021/06/28 09:15:48;;;;;;;10.25;9.35;;;;;;;25.04;63.88;96763.91;1650702;85;20940;-81
2021/06/28 09:18:23;;;;;;;9.70;8.80;;;;;;;25.05;62.36;96768.16;1669481;84;21008;-81
2021/06/28 09:21:07;;;;;;;9.15;8.45;;;;;;;25.10;61.19;96769.52;1648535;85;21001;-81
2021/06/28 09:23:39;;;;;;;10.13;9.23;;;;;;;25.17;62.57;96758.61;1629866;87;20976;-81
2021/06/28 09:26:14;;;;;;;9.13;8.33;;;;;;;25.17;59.66;96751.95;1639350;85;21067;-81
2021/06/28 09:28:43;;;;;;;9.53;8.63;;;;;;;25.22;60.61;96756.77;1647688;85;21024;-81
2021/06/28 09:31:15;;;;;;;10.20;8.38;;;;;;;25.34;60.51;96751.16;1669498;85;21003;-81
2021/06/28 09:33:41;;;;;;;9.13;8.35;;;;;;;25.45;59.69;96755.42;1619676;87;20956;-81
2021/06/28 09:36:22;;;;;;;9.05;8.15;;;;;;;25.44;58.77;96750.63;1642112;86;21065;-82
2021/06/28 09:38:48;;;;;;;8.83;8.03;;;;;;;25.48;58.19;96756.21;1643705;85;21037;-81
2021/06/28 09:41:24;;;;;;;9.15;8.35;;;;;;;25.52;58.65;96753.81;1669170;85;20942;-81
2021/06/28 09:44:00;;;;;;;8.73;8.13;;;;;;;25.59;58.25;96745.03;1615209;86;21010;-81
2021/06/28 09:46:26;;;;;;;8.65;7.87;;;;;;;25.59;60.24;96741.84;1666750;84;21066;-82
2021/06/28 09:48:53;;;;;;;9.38;8.55;;;;;;;25.58;60.38;96738.92;1637808;86;20986;-81
2021/06/28 09:51:28;;;;;;;7.75;7.15;;;;;;;25.55;59.17;96734.67;1623552;86;20992;-81
2021/06/28 09:54:14;;;;;;;8.83;8.13;;;;;;;25.59;59.08;96736.52;1659690;84;20946;-81
2021/06/28 09:56:48;;;;;;;8.13;7.45;;;;;;;25.59;59.08;96736.52;1667435;85;21005;-81
2021/06/28 09:59:38;;;;;;;8.63;7.92;;;;;;;25.58;57.83;96731.47;1656101;85;20932;-81
2021/06/28 10:02:26;;;;;;;8.00;7.40;;;;;;;25.58;57.83;96731.47;1650537;85;21009;-81
2021/06/28 10:07:35;;;;;;;7.90;7.20;;;;;;;25.78;58.41;96738.11;1668724;85;21344;-81
2021/06/28 10:10:28;;;;;;;8.03;7.10;;;;;;;25.83;58.50;96735.42;1640447;85;20972;-81
2021/06/28 10:13:02;;;;;;;7.75;7.15;;;;;;;25.82;58.80;96734.37;1668340;85;21329;-81
2021/06/28 10:15:39;;;;;;;7.17;6.50;;;;;;;25.85;55.96;96740.48;1668165;85;21018;-81
2021/06/28 10:18:07;;;;;;;7.20;6.50;;;;;;;25.75;55.29;96735.19;1640778;86;20938;-81
2021/06/28 10:20:37;;;;;;;6.95;6.35;;;;;;;25.79;58.63;96738.37;1640812;86;21009;-81
2021/06/28 10:23:04;;;;;;;7.03;6.42;;;;;;;25.79;58.63;96738.37;1678105;84;21015;-81
2021/06/28 10:25:30;;;;;;;7.45;6.83;;;;;;;25.76;54.91;96736.25;1696303;84;21004;-81
2021/06/28 10:27:56;;;;;;;6.97;6.37;;;;;;;25.72;54.70;96740.53;1678246;84;20993;-81
2021/06/28 10:30:24;;;;;;;7.83;7.20;;;;;;;25.57;55.44;96732.00;1678184;84;21012;-81
2021/06/28 10:32:57;;;;;;;7.90;7.20;;;;;;;25.57;55.44;96732.00;1653154;85;20918;-81
2021/06/28 10:35:30;;;;;;;8.03;7.42;;;;;;;25.72;54.88;96745.31;1677219;84;20963;-81
2021/06/28 10:38:01;;;;;;;7.22;6.53;;;;;;;25.70;54.19;96734.11;1677790;85;21295;-81
2021/06/28 10:40:26;;;;;;;8.28;7.58;;;;;;;25.72;55.87;96724.56;1695648;83;20985;-82
2021/06/28 10:42:55;;;;;;;7.42;6.72;;;;;;;25.82;56.64;96730.38;1675448;85;21068;-82
2021/06/28 10:45:42;;;;;;;7.72;7.03;;;;;;;25.79;54.91;96736.24;1678370;84;20948;-82
2021/06/28 10:48:14;;;;;;;6.97;6.40;;;;;;;25.83;54.31;96735.96;1662903;85;21353;-82
2021/06/28 10:50:57;;;;;;;7.47;6.72;;;;;;;25.94;52.36;96737.53;1677632;85;21284;-81
2021/06/28 10:53:37;;;;;;;5.65;5.25;;;;;;;25.79;51.30;96725.59;1660805;85;21278;-81
2021/06/28 10:56:27;;;;;;;7.37;6.83;;;;;;;25.79;51.30;96725.59;1670140;84;21075;-81
2021/06/28 10:59:05;;;;;;;7.35;6.70;;;;;;;25.90;54.15;96737.82;1664872;85;20965;-81
2021/06/28 11:01:40;;;;;;;7.12;6.58;;;;;;;25.99;55.94;96736.98;1677919;84;21001;-81
2021/06/28 11:04:17;;;;;;;6.83;6.33;;;;;;;26.10;56.09;96739.08;1678311;84;20932;-82
2021/06/28 11:07:11;;;;;;;6.97;6.35;;;;;;;26.22;54.18;96730.25;1696080;83;21354;-81
2021/06/28 11:09:44;;;;;;;7.00;6.40;;;;;;;26.26;53.15;96724.63;1678390;84;21257;-81
2021/06/28 11:12:27;;;;;;;5.92;5.42;;;;;;;26.30;56.02;96731.00;1692427;83;20934;-81
2021/06/28 11:15:15;;;;;;;6.03;5.47;;;;;;;26.29;52.32;96733.94;1678363;85;20945;-81
2021/06/28 11:17:51;;;;;;;6.45;5.72;;;;;;;26.28;50.90;96733.68;1678383;84;20985;-81
2021/06/28 11:20:32;;;;;;;5.35;4.92;;;;;;;26.34;51.56;96731.25;1678317;84;20955;-81
2021/06/28 11:23:19;;;;;;;6.22;5.72;;;;;;;26.39;51.56;96720.62;1694414;84;20985;-82
2021/06/28 11:25:54;;;;;;;6.60;6.05;;;;;;;26.49;50.25;96727.20;1685550;84;21286;-81
2021/06/28 11:28:36;;;;;;;6.10;5.50;;;;;;;26.52;49.91;96722.69;1665185;84;20999;-81
2021/06/28 11:31:08;;;;;;;6.33;5.67;;;;;;;26.58;51.49;96724.23;1683636;84;21305;-81
2021/06/28 11:33:45;;;;;;;5.53;5.00;;;;;;;26.55;52.83;96723.46;1670102;84;20925;-81
2021/06/28 11:36:36;;;;;;;5.53;5.03;;;;;;;26.54;51.75;96719.74;1668203;85;21003;-81